Jasper, Canada
Current Conditions -  °F | °C
As of 1:00 AM on Tuesday 21 Oct 2014 (Local Time) from CYET Reporting Station
Overcast Overcast  
Wind Chill: 50°   Ceiling: 15000
Heat Index: 50°   Visibility: 9mi
Dew Point: 37°   Wind: 6mph
Humidity: 62%   Direction: 220°SW
Pressure: 29.59"   Gusts: NA
Location:  52.87°N, 118.08°W
Report Text: CYET 210700Z AUTO 22005KT 200V260 9SM OVC150 10/03 A2959 RMK PRESRR SLP024 DENSITY ALT 3500FT
Loading
Personal Weather Stations






























Interactive Weather Map
Tropical Storm Tracking
New forecast layout! Learn more

10-Day Weather Forecast

Advertisements
Track Severe Weather on mobile